sensor_id;sensor_type;location;lat;lon;timestamp;P1;durP1;ratioP1;P2;durP2;ratioP2
37971;SDS011;23794;48.234;8.344;2022-11-25T00:01:05;2.63;;;0.88;;
37971;SDS011;23794;48.234;8.344;2022-11-25T00:03:35;1.90;;;0.70;;
37971;SDS011;23794;48.234;8.344;2022-11-25T00:08:38;5.25;;;3.13;;
37971;SDS011;23794;48.234;8.344;2022-11-25T00:11:05;7.53;;;1.60;;
37971;SDS011;23794;48.234;8.344;2022-11-25T00:13:33;3.20;;;1.48;;
37971;SDS011;23794;48.234;8.344;2022-11-25T00:16:07;8.77;;;1.25;;
37971;SDS011;23794;48.234;8.344;2022-11-25T00:18:38;2.30;;;0.60;;
37971;SDS011;23794;48.234;8.344;2022-11-25T00:21:09;3.53;;;0.75;;
37971;SDS011;23794;48.234;8.344;2022-11-25T00:23:38;2.03;;;0.73;;
37971;SDS011;23794;48.234;8.344;2022-11-25T00:26:12;2.70;;;0.55;;
37971;SDS011;23794;48.234;8.344;2022-11-25T00:28:41;2.67;;;0.80;;
37971;SDS011;23794;48.234;8.344;2022-11-25T00:31:11;2.85;;;1.58;;
37971;SDS011;23794;48.234;8.344;2022-11-25T00:33:40;3.50;;;1.08;;
37971;SDS011;23794;48.234;8.344;2022-11-25T00:36:14;2.72;;;1.50;;
37971;SDS011;23794;48.234;8.344;2022-11-25T00:38:42;2.75;;;0.88;;
37971;SDS011;23794;48.234;8.344;2022-11-25T00:41:09;2.08;;;0.80;;
37971;SDS011;23794;48.234;8.344;2022-11-25T00:43:55;2.70;;;0.82;;
37971;SDS011;23794;48.234;8.344;2022-11-25T00:46:40;1.67;;;0.90;;
37971;SDS011;23794;48.234;8.344;2022-11-25T00:49:08;1.95;;;0.85;;
37971;SDS011;23794;48.234;8.344;2022-11-25T00:51:34;1.63;;;0.52;;
37971;SDS011;23794;48.234;8.344;2022-11-25T00:54:01;1.27;;;0.47;;
37971;SDS011;23794;48.234;8.344;2022-11-25T00:56:28;1.63;;;0.70;;
37971;SDS011;23794;48.234;8.344;2022-11-25T00:58:56;2.22;;;0.85;;
37971;SDS011;23794;48.234;8.344;2022-11-25T01:01:23;1.05;;;0.55;;
37971;SDS011;23794;48.234;8.344;2022-11-25T01:03:50;1.75;;;0.47;;
37971;SDS011;23794;48.234;8.344;2022-11-25T01:06:18;1.88;;;0.70;;
37971;SDS011;23794;48.234;8.344;2022-11-25T01:08:46;1.55;;;0.47;;
37971;SDS011;23794;48.234;8.344;2022-11-25T01:11:14;5.20;;;0.82;;
37971;SDS011;23794;48.234;8.344;2022-11-25T01:13:42;1.38;;;0.50;;
37971;SDS011;23794;48.234;8.344;2022-11-25T01:16:10;2.72;;;1.05;;
37971;SDS011;23794;48.234;8.344;2022-11-25T01:18:39;1.98;;;0.52;;
37971;SDS011;23794;48.234;8.344;2022-11-25T01:21:07;1.75;;;0.52;;
37971;SDS011;23794;48.234;8.344;2022-11-25T01:26:07;0.95;;;0.50;;
37971;SDS011;23794;48.234;8.344;2022-11-25T01:28:40;1.35;;;0.43;;
37971;SDS011;23794;48.234;8.344;2022-11-25T01:31:08;1.17;;;0.32;;
37971;SDS011;23794;48.234;8.344;2022-11-25T01:33:38;3.20;;;0.60;;
37971;SDS011;23794;48.234;8.344;2022-11-25T01:36:12;3.42;;;1.10;;
37971;SDS011;23794;48.234;8.344;2022-11-25T01:38:42;2.95;;;0.68;;
37971;SDS011;23794;48.234;8.344;2022-11-25T01:41:11;2.45;;;0.60;;
37971;SDS011;23794;48.234;8.344;2022-11-25T01:43:39;1.88;;;0.57;;
37971;SDS011;23794;48.234;8.344;2022-11-25T01:46:08;1.80;;;0.43;;
37971;SDS011;23794;48.234;8.344;2022-11-25T01:48:43;4.57;;;0.63;;
37971;SDS011;23794;48.234;8.344;2022-11-25T01:54:19;2.42;;;0.68;;
37971;SDS011;23794;48.234;8.344;2022-11-25T01:56:50;2.63;;;1.02;;
37971;SDS011;23794;48.234;8.344;2022-11-25T01:59:22;1.77;;;0.60;;
37971;SDS011;23794;48.234;8.344;2022-11-25T02:01:49;2.00;;;0.50;;
37971;SDS011;23794;48.234;8.344;2022-11-25T02:04:19;1.27;;;0.45;;
37971;SDS011;23794;48.234;8.344;2022-11-25T02:06:50;2.90;;;0.88;;
37971;SDS011;23794;48.234;8.344;2022-11-25T02:09:20;0.60;;;0.35;;
37971;SDS011;23794;48.234;8.344;2022-11-25T02:11:48;3.65;;;1.20;;
37971;SDS011;23794;48.234;8.344;2022-11-25T02:14:17;5.03;;;1.95;;
37971;SDS011;23794;48.234;8.344;2022-11-25T02:16:46;6.40;;;1.88;;
37971;SDS011;23794;48.234;8.344;2022-11-25T02:19:21;3.63;;;1.25;;
37971;SDS011;23794;48.234;8.344;2022-11-25T02:21:53;3.60;;;0.98;;
37971;SDS011;23794;48.234;8.344;2022-11-25T02:24:33;0.73;;;0.70;;
37971;SDS011;23794;48.234;8.344;2022-11-25T02:27:08;0.98;;;0.60;;
37971;SDS011;23794;48.234;8.344;2022-11-25T02:29:35;1.77;;;0.70;;
37971;SDS011;23794;48.234;8.344;2022-11-25T02:32:04;0.82;;;0.60;;
37971;SDS011;23794;48.234;8.344;2022-11-25T02:34:31;2.10;;;0.57;;
37971;SDS011;23794;48.234;8.344;2022-11-25T02:36:58;2.13;;;0.80;;
37971;SDS011;23794;48.234;8.344;2022-11-25T02:39:26;2.28;;;0.70;;
37971;SDS011;23794;48.234;8.344;2022-11-25T02:41:55;1.23;;;0.80;;
37971;SDS011;23794;48.234;8.344;2022-11-25T02:44:24;1.27;;;0.60;;
37971;SDS011;23794;48.234;8.344;2022-11-25T02:46:52;1.95;;;0.57;;
37971;SDS011;23794;48.234;8.344;2022-11-25T02:49:19;3.17;;;0.57;;
37971;SDS011;23794;48.234;8.344;2022-11-25T02:51:45;2.55;;;0.55;;
37971;SDS011;23794;48.234;8.344;2022-11-25T02:54:15;2.35;;;0.55;;
37971;SDS011;23794;48.234;8.344;2022-11-25T02:56:43;3.45;;;0.60;;
37971;SDS011;23794;48.234;8.344;2022-11-25T02:59:10;2.58;;;0.65;;
37971;SDS011;23794;48.234;8.344;2022-11-25T03:01:38;2.83;;;1.20;;
37971;SDS011;23794;48.234;8.344;2022-11-25T03:04:07;3.17;;;1.30;;
37971;SDS011;23794;48.234;8.344;2022-11-25T03:06:34;2.88;;;0.70;;
37971;SDS011;23794;48.234;8.344;2022-11-25T03:09:02;2.15;;;0.70;;
37971;SDS011;23794;48.234;8.344;2022-11-25T03:11:29;1.60;;;0.60;;
37971;SDS011;23794;48.234;8.344;2022-11-25T03:14:15;1.10;;;0.43;;
37971;SDS011;23794;48.234;8.344;2022-11-25T03:16:42;1.88;;;0.55;;
37971;SDS011;23794;48.234;8.344;2022-11-25T03:19:09;1.60;;;0.40;;
37971;SDS011;23794;48.234;8.344;2022-11-25T03:21:36;0.80;;;0.43;;
37971;SDS011;23794;48.234;8.344;2022-11-25T03:24:03;1.05;;;0.45;;
37971;SDS011;23794;48.234;8.344;2022-11-25T03:26:30;1.45;;;0.60;;
37971;SDS011;23794;48.234;8.344;2022-11-25T03:28:56;4.95;;;1.80;;
37971;SDS011;23794;48.234;8.344;2022-11-25T03:31:23;2.63;;;0.70;;
37971;SDS011;23794;48.234;8.344;2022-11-25T03:33:50;1.05;;;0.60;;
37971;SDS011;23794;48.234;8.344;2022-11-25T03:36:17;3.13;;;0.65;;
37971;SDS011;23794;48.234;8.344;2022-11-25T03:38:46;1.08;;;0.43;;
37971;SDS011;23794;48.234;8.344;2022-11-25T03:41:12;1.45;;;0.50;;
37971;SDS011;23794;48.234;8.344;2022-11-25T03:43:40;0.57;;;0.38;;
37971;SDS011;23794;48.234;8.344;2022-11-25T03:46:06;2.38;;;0.40;;
37971;SDS011;23794;48.234;8.344;2022-11-25T03:48:34;4.22;;;0.68;;
37971;SDS011;23794;48.234;8.344;2022-11-25T03:51:01;1.52;;;0.30;;
37971;SDS011;23794;48.234;8.344;2022-11-25T03:53:27;1.05;;;0.30;;
37971;SDS011;23794;48.234;8.344;2022-11-25T03:55:57;0.75;;;0.30;;
37971;SDS011;23794;48.234;8.344;2022-11-25T03:58:24;1.73;;;0.30;;
37971;SDS011;23794;48.234;8.344;2022-11-25T04:00:53;1.42;;;0.43;;
37971;SDS011;23794;48.234;8.344;2022-11-25T04:03:20;0.63;;;0.20;;
37971;SDS011;23794;48.234;8.344;2022-11-25T04:05:47;1.60;;;0.40;;
37971;SDS011;23794;48.234;8.344;2022-11-25T04:08:14;2.00;;;0.40;;
37971;SDS011;23794;48.234;8.344;2022-11-25T04:10:43;1.35;;;0.45;;
37971;SDS011;23794;48.234;8.344;2022-11-25T04:13:10;4.25;;;0.40;;
37971;SDS011;23794;48.234;8.344;2022-11-25T04:15:44;1.13;;;0.30;;
37971;SDS011;23794;48.234;8.344;2022-11-25T04:18:14;1.48;;;0.30;;
37971;SDS011;23794;48.234;8.344;2022-11-25T04:20:42;2.30;;;0.50;;
37971;SDS011;23794;48.234;8.344;2022-11-25T04:23:10;1.38;;;0.38;;
37971;SDS011;23794;48.234;8.344;2022-11-25T04:25:44;2.92;;;0.73;;
37971;SDS011;23794;48.234;8.344;2022-11-25T04:28:18;1.65;;;0.50;;
37971;SDS011;23794;48.234;8.344;2022-11-25T04:30:44;0.55;;;0.20;;
37971;SDS011;23794;48.234;8.344;2022-11-25T04:33:11;1.05;;;0.30;;
37971;SDS011;23794;48.234;8.344;2022-11-25T04:35:38;1.75;;;0.55;;
37971;SDS011;23794;48.234;8.344;2022-11-25T04:38:06;2.30;;;0.70;;
37971;SDS011;23794;48.234;8.344;2022-11-25T04:40:35;2.47;;;0.40;;
37971;SDS011;23794;48.234;8.344;2022-11-25T04:43:14;1.90;;;0.40;;
37971;SDS011;23794;48.234;8.344;2022-11-25T04:46:04;1.85;;;0.70;;
37971;SDS011;23794;48.234;8.344;2022-11-25T04:48:39;0.98;;;0.45;;
37971;SDS011;23794;48.234;8.344;2022-11-25T04:51:07;2.13;;;0.45;;
37971;SDS011;23794;48.234;8.344;2022-11-25T04:53:34;1.90;;;0.32;;
37971;SDS011;23794;48.234;8.344;2022-11-25T04:56:01;0.90;;;0.30;;
37971;SDS011;23794;48.234;8.344;2022-11-25T04:58:33;2.22;;;0.40;;
37971;SDS011;23794;48.234;8.344;2022-11-25T05:01:18;3.17;;;0.32;;
37971;SDS011;23794;48.234;8.344;2022-11-25T05:03:48;1.33;;;0.40;;
37971;SDS011;23794;48.234;8.344;2022-11-25T05:06:24;1.95;;;0.65;;
37971;SDS011;23794;48.234;8.344;2022-11-25T05:08:52;1.40;;;0.52;;
37971;SDS011;23794;48.234;8.344;2022-11-25T05:11:21;1.70;;;0.50;;
37971;SDS011;23794;48.234;8.344;2022-11-25T05:13:49;2.65;;;0.68;;
37971;SDS011;23794;48.234;8.344;2022-11-25T05:16:16;1.13;;;0.40;;
37971;SDS011;23794;48.234;8.344;2022-11-25T05:18:43;2.97;;;0.52;;
37971;SDS011;23794;48.234;8.344;2022-11-25T05:21:11;3.20;;;0.45;;
37971;SDS011;23794;48.234;8.344;2022-11-25T05:23:40;2.45;;;0.40;;
37971;SDS011;23794;48.234;8.344;2022-11-25T05:26:07;1.00;;;0.30;;
37971;SDS011;23794;48.234;8.344;2022-11-25T05:28:41;1.60;;;0.25;;
37971;SDS011;23794;48.234;8.344;2022-11-25T05:31:09;3.35;;;0.40;;
37971;SDS011;23794;48.234;8.344;2022-11-25T05:33:37;1.27;;;0.50;;
37971;SDS011;23794;48.234;8.344;2022-11-25T05:36:05;2.05;;;0.30;;
37971;SDS011;23794;48.234;8.344;2022-11-25T05:38:39;1.40;;;0.40;;
37971;SDS011;23794;48.234;8.344;2022-11-25T05:41:09;1.10;;;0.30;;
37971;SDS011;23794;48.234;8.344;2022-11-25T05:43:38;1.15;;;0.40;;
37971;SDS011;23794;48.234;8.344;2022-11-25T05:46:06;1.20;;;0.20;;
37971;SDS011;23794;48.234;8.344;2022-11-25T05:48:37;1.50;;;0.30;;
37971;SDS011;23794;48.234;8.344;2022-11-25T05:51:04;0.85;;;0.55;;
37971;SDS011;23794;48.234;8.344;2022-11-25T05:53:32;3.22;;;0.40;;
37971;SDS011;23794;48.234;8.344;2022-11-25T05:56:01;0.63;;;0.30;;
37971;SDS011;23794;48.234;8.344;2022-11-25T05:58:48;1.50;;;0.50;;
37971;SDS011;23794;48.234;8.344;2022-11-25T06:01:15;2.95;;;0.60;;
37971;SDS011;23794;48.234;8.344;2022-11-25T06:03:43;1.85;;;0.57;;
37971;SDS011;23794;48.234;8.344;2022-11-25T06:06:11;2.90;;;0.77;;
37971;SDS011;23794;48.234;8.344;2022-11-25T06:08:39;3.33;;;0.82;;
37971;SDS011;23794;48.234;8.344;2022-11-25T06:11:08;1.23;;;0.70;;
37971;SDS011;23794;48.234;8.344;2022-11-25T06:13:37;1.85;;;0.57;;
37971;SDS011;23794;48.234;8.344;2022-11-25T06:16:09;1.73;;;1.10;;
37971;SDS011;23794;48.234;8.344;2022-11-25T06:18:37;1.00;;;0.60;;
37971;SDS011;23794;48.234;8.344;2022-11-25T06:21:06;1.58;;;0.98;;
37971;SDS011;23794;48.234;8.344;2022-11-25T06:23:35;4.20;;;1.70;;
37971;SDS011;23794;48.234;8.344;2022-11-25T06:26:37;15.23;;;8.40;;
37971;SDS011;23794;48.234;8.344;2022-11-25T06:28:59;10.90;;;3.97;;
37971;SDS011;23794;48.234;8.344;2022-11-25T06:31:25;10.20;;;5.78;;
37971;SDS011;23794;48.234;8.344;2022-11-25T06:34:02;13.00;;;7.10;;
37971;SDS011;23794;48.234;8.344;2022-11-25T06:36:31;10.32;;;5.30;;
37971;SDS011;23794;48.234;8.344;2022-11-25T06:38:58;9.98;;;3.42;;
37971;SDS011;23794;48.234;8.344;2022-11-25T06:41:25;6.30;;;2.53;;
37971;SDS011;23794;48.234;8.344;2022-11-25T06:43:52;6.45;;;2.95;;
37971;SDS011;23794;48.234;8.344;2022-11-25T06:46:18;4.60;;;2.28;;
37971;SDS011;23794;48.234;8.344;2022-11-25T06:48:50;6.78;;;2.45;;
37971;SDS011;23794;48.234;8.344;2022-11-25T06:51:18;4.72;;;2.78;;
37971;SDS011;23794;48.234;8.344;2022-11-25T06:53:45;4.55;;;2.65;;
37971;SDS011;23794;48.234;8.344;2022-11-25T06:56:20;4.13;;;2.20;;
37971;SDS011;23794;48.234;8.344;2022-11-25T06:58:49;3.95;;;2.00;;
37971;SDS011;23794;48.234;8.344;2022-11-25T07:01:18;3.85;;;2.65;;
37971;SDS011;23794;48.234;8.344;2022-11-25T07:03:51;3.90;;;2.40;;
37971;SDS011;23794;48.234;8.344;2022-11-25T07:06:20;3.95;;;2.88;;
37971;SDS011;23794;48.234;8.344;2022-11-25T07:08:47;6.18;;;2.97;;
37971;SDS011;23794;48.234;8.344;2022-11-25T07:13:47;6.32;;;3.88;;
37971;SDS011;23794;48.234;8.344;2022-11-25T07:16:17;5.93;;;3.23;;
37971;SDS011;23794;48.234;8.344;2022-11-25T07:18:44;8.73;;;4.05;;
37971;SDS011;23794;48.234;8.344;2022-11-25T07:21:14;5.57;;;3.20;;
37971;SDS011;23794;48.234;8.344;2022-11-25T07:23:44;3.85;;;2.55;;
37971;SDS011;23794;48.234;8.344;2022-11-25T07:26:12;5.75;;;2.85;;
37971;SDS011;23794;48.234;8.344;2022-11-25T07:28:41;5.70;;;3.40;;
37971;SDS011;23794;48.234;8.344;2022-11-25T07:31:30;5.18;;;4.15;;
37971;SDS011;23794;48.234;8.344;2022-11-25T07:34:00;6.03;;;3.17;;
37971;SDS011;23794;48.234;8.344;2022-11-25T07:36:38;6.35;;;3.45;;
37971;SDS011;23794;48.234;8.344;2022-11-25T07:39:07;6.38;;;3.67;;
37971;SDS011;23794;48.234;8.344;2022-11-25T07:41:37;7.32;;;3.58;;
37971;SDS011;23794;48.234;8.344;2022-11-25T07:44:05;5.93;;;3.13;;
37971;SDS011;23794;48.234;8.344;2022-11-25T07:46:43;5.53;;;3.15;;
37971;SDS011;23794;48.234;8.344;2022-11-25T07:49:14;4.78;;;2.83;;
37971;SDS011;23794;48.234;8.344;2022-11-25T07:51:46;7.43;;;3.45;;
37971;SDS011;23794;48.234;8.344;2022-11-25T07:54:13;7.63;;;4.95;;
37971;SDS011;23794;48.234;8.344;2022-11-25T07:56:41;10.63;;;5.97;;
37971;SDS011;23794;48.234;8.344;2022-11-25T07:59:11;7.75;;;5.63;;
37971;SDS011;23794;48.234;8.344;2022-11-25T08:01:40;8.93;;;5.68;;
37971;SDS011;23794;48.234;8.344;2022-11-25T08:04:08;8.23;;;5.05;;
37971;SDS011;23794;48.234;8.344;2022-11-25T08:06:44;11.60;;;6.75;;
37971;SDS011;23794;48.234;8.344;2022-11-25T08:09:13;12.32;;;6.88;;
37971;SDS011;23794;48.234;8.344;2022-11-25T08:11:44;12.13;;;7.20;;
37971;SDS011;23794;48.234;8.344;2022-11-25T08:14:12;17.35;;;9.15;;
37971;SDS011;23794;48.234;8.344;2022-11-25T08:16:39;25.63;;;10.20;;
37971;SDS011;23794;48.234;8.344;2022-11-25T08:19:07;14.93;;;7.82;;
37971;SDS011;23794;48.234;8.344;2022-11-25T08:21:36;16.63;;;6.63;;
37971;SDS011;23794;48.234;8.344;2022-11-25T08:24:03;12.32;;;7.50;;
37971;SDS011;23794;48.234;8.344;2022-11-25T08:26:32;11.07;;;6.57;;
37971;SDS011;23794;48.234;8.344;2022-11-25T08:29:02;15.68;;;7.97;;
37971;SDS011;23794;48.234;8.344;2022-11-25T08:31:31;16.10;;;9.02;;
37971;SDS011;23794;48.234;8.344;2022-11-25T08:34:00;17.95;;;7.95;;
37971;SDS011;23794;48.234;8.344;2022-11-25T08:36:28;16.13;;;7.85;;
37971;SDS011;23794;48.234;8.344;2022-11-25T08:38:56;13.70;;;8.18;;
37971;SDS011;23794;48.234;8.344;2022-11-25T08:41:25;13.93;;;7.22;;
37971;SDS011;23794;48.234;8.344;2022-11-25T08:43:57;10.98;;;6.88;;
37971;SDS011;23794;48.234;8.344;2022-11-25T08:46:27;12.02;;;6.65;;
37971;SDS011;23794;48.234;8.344;2022-11-25T08:48:56;10.45;;;5.35;;
37971;SDS011;23794;48.234;8.344;2022-11-25T08:51:27;7.80;;;4.30;;
37971;SDS011;23794;48.234;8.344;2022-11-25T08:53:55;7.35;;;4.38;;
37971;SDS011;23794;48.234;8.344;2022-11-25T08:56:22;8.88;;;4.88;;
37971;SDS011;23794;48.234;8.344;2022-11-25T08:58:52;10.95;;;5.70;;
37971;SDS011;23794;48.234;8.344;2022-11-25T09:01:20;10.52;;;5.95;;
37971;SDS011;23794;48.234;8.344;2022-11-25T09:03:49;13.52;;;7.35;;
37971;SDS011;23794;48.234;8.344;2022-11-25T09:06:18;14.23;;;7.30;;
37971;SDS011;23794;48.234;8.344;2022-11-25T09:08:46;9.85;;;5.25;;
37971;SDS011;23794;48.234;8.344;2022-11-25T09:11:13;10.60;;;6.63;;
37971;SDS011;23794;48.234;8.344;2022-11-25T09:13:40;13.68;;;6.47;;
37971;SDS011;23794;48.234;8.344;2022-11-25T09:16:07;10.77;;;5.50;;
37971;SDS011;23794;48.234;8.344;2022-11-25T09:18:34;12.30;;;5.70;;
37971;SDS011;23794;48.234;8.344;2022-11-25T09:21:06;10.93;;;5.88;;
37971;SDS011;23794;48.234;8.344;2022-11-25T09:23:37;12.23;;;6.00;;
37971;SDS011;23794;48.234;8.344;2022-11-25T09:26:05;10.45;;;5.68;;
37971;SDS011;23794;48.234;8.344;2022-11-25T09:28:33;13.13;;;6.80;;
37971;SDS011;23794;48.234;8.344;2022-11-25T09:31:07;13.48;;;6.93;;
37971;SDS011;23794;48.234;8.344;2022-11-25T09:33:35;23.45;;;11.70;;
37971;SDS011;23794;48.234;8.344;2022-11-25T09:36:02;21.40;;;11.57;;
37971;SDS011;23794;48.234;8.344;2022-11-25T09:38:29;24.35;;;12.25;;
37971;SDS011;23794;48.234;8.344;2022-11-25T09:41:00;19.10;;;11.50;;
37971;SDS011;23794;48.234;8.344;2022-11-25T09:44:12;22.55;;;11.05;;
37971;SDS011;23794;48.234;8.344;2022-11-25T09:47:06;17.23;;;8.85;;
37971;SDS011;23794;48.234;8.344;2022-11-25T09:49:49;11.07;;;6.88;;
37971;SDS011;23794;48.234;8.344;2022-11-25T09:52:45;17.50;;;9.75;;
37971;SDS011;23794;48.234;8.344;2022-11-25T09:55:38;14.85;;;7.60;;
37971;SDS011;23794;48.234;8.344;2022-11-25T10:00:55;6.22;;;3.35;;
37971;SDS011;23794;48.234;8.344;2022-11-25T10:06:19;37.42;;;18.15;;
37971;SDS011;23794;48.234;8.344;2022-11-25T10:09:13;40.20;;;19.35;;
37971;SDS011;23794;48.234;8.344;2022-11-25T10:11:49;26.88;;;14.90;;
37971;SDS011;23794;48.234;8.344;2022-11-25T10:14:27;14.05;;;6.72;;
37971;SDS011;23794;48.234;8.344;2022-11-25T10:19:54;13.27;;;7.03;;
37971;SDS011;23794;48.234;8.344;2022-11-25T10:24:58;8.70;;;4.68;;
37971;SDS011;23794;48.234;8.344;2022-11-25T10:27:40;8.07;;;3.90;;
37971;SDS011;23794;48.234;8.344;2022-11-25T10:30:23;7.15;;;2.95;;
37971;SDS011;23794;48.234;8.344;2022-11-25T10:35:49;16.00;;;8.45;;
37971;SDS011;23794;48.234;8.344;2022-11-25T10:38:41;25.08;;;11.55;;
37971;SDS011;23794;48.234;8.344;2022-11-25T10:41:27;15.88;;;8.23;;
37971;SDS011;23794;48.234;8.344;2022-11-25T10:43:58;6.80;;;3.20;;
37971;SDS011;23794;48.234;8.344;2022-11-25T10:46:31;9.45;;;3.92;;
37971;SDS011;23794;48.234;8.344;2022-11-25T10:49:26;2.75;;;1.30;;
37971;SDS011;23794;48.234;8.344;2022-11-25T10:51:56;1.33;;;0.60;;
37971;SDS011;23794;48.234;8.344;2022-11-25T10:54:24;0.77;;;0.50;;
37971;SDS011;23794;48.234;8.344;2022-11-25T10:56:55;1.38;;;0.43;;
37971;SDS011;23794;48.234;8.344;2022-11-25T10:59:30;2.47;;;0.60;;
37971;SDS011;23794;48.234;8.344;2022-11-25T11:07:21;1.48;;;0.93;;
37971;SDS011;23794;48.234;8.344;2022-11-25T11:09:49;1.95;;;0.50;;
37971;SDS011;23794;48.234;8.344;2022-11-25T11:12:23;2.03;;;0.55;;
37971;SDS011;23794;48.234;8.344;2022-11-25T11:14:52;1.15;;;0.50;;
37971;SDS011;23794;48.234;8.344;2022-11-25T11:17:38;2.47;;;0.50;;
37971;SDS011;23794;48.234;8.344;2022-11-25T11:22:32;1.38;;;0.40;;
37971;SDS011;23794;48.234;8.344;2022-11-25T11:25:04;1.52;;;0.47;;
37971;SDS011;23794;48.234;8.344;2022-11-25T11:27:46;2.65;;;1.52;;
37971;SDS011;23794;48.234;8.344;2022-11-25T11:30:20;4.68;;;3.00;;
37971;SDS011;23794;48.234;8.344;2022-11-25T11:33:06;2.70;;;1.70;;
37971;SDS011;23794;48.234;8.344;2022-11-25T11:36:00;3.65;;;1.70;;
37971;SDS011;23794;48.234;8.344;2022-11-25T11:50:31;1.50;;;0.50;;
37971;SDS011;23794;48.234;8.344;2022-11-25T11:55:45;1.83;;;0.88;;
37971;SDS011;23794;48.234;8.344;2022-11-25T11:58:52;2.00;;;0.60;;
37971;SDS011;23794;48.234;8.344;2022-11-25T12:07:31;1.08;;;0.63;;
37971;SDS011;23794;48.234;8.344;2022-11-25T12:12:44;1.90;;;1.20;;
37971;SDS011;23794;48.234;8.344;2022-11-25T12:17:57;1.92;;;0.90;;
37971;SDS011;23794;48.234;8.344;2022-11-25T12:23:27;1.17;;;0.68;;
37971;SDS011;23794;48.234;8.344;2022-11-25T12:26:12;1.38;;;0.80;;
37971;SDS011;23794;48.234;8.344;2022-11-25T12:28:56;1.08;;;0.80;;
37971;SDS011;23794;48.234;8.344;2022-11-25T12:31:29;1.38;;;0.90;;
37971;SDS011;23794;48.234;8.344;2022-11-25T12:34:20;5.28;;;1.08;;
37971;SDS011;23794;48.234;8.344;2022-11-25T12:37:11;2.08;;;1.00;;
37971;SDS011;23794;48.234;8.344;2022-11-25T12:40:03;1.88;;;0.82;;
37971;SDS011;23794;48.234;8.344;2022-11-25T12:42:39;2.15;;;0.60;;
37971;SDS011;23794;48.234;8.344;2022-11-25T12:47:34;5.18;;;1.17;;
37971;SDS011;23794;48.234;8.344;2022-11-25T12:50:02;3.50;;;1.27;;
37971;SDS011;23794;48.234;8.344;2022-11-25T13:00:29;4.68;;;1.60;;
37971;SDS011;23794;48.234;8.344;2022-11-25T13:17:10;9.57;;;3.25;;
37971;SDS011;23794;48.234;8.344;2022-11-25T13:19:42;9.32;;;2.35;;
37971;SDS011;23794;48.234;8.344;2022-11-25T13:22:30;6.95;;;2.20;;
37971;SDS011;23794;48.234;8.344;2022-11-25T13:24:56;6.15;;;2.00;;
37971;SDS011;23794;48.234;8.344;2022-11-25T13:27:30;5.38;;;1.75;;
37971;SDS011;23794;48.234;8.344;2022-11-25T13:30:33;6.03;;;1.48;;
37971;SDS011;23794;48.234;8.344;2022-11-25T13:35:58;7.53;;;2.50;;
37971;SDS011;23794;48.234;8.344;2022-11-25T13:38:37;6.18;;;2.50;;
37971;SDS011;23794;48.234;8.344;2022-11-25T13:44:20;4.75;;;1.92;;
37971;SDS011;23794;48.234;8.344;2022-11-25T13:46:58;6.55;;;2.20;;
37971;SDS011;23794;48.234;8.344;2022-11-25T13:54:55;6.45;;;1.80;;
37971;SDS011;23794;48.234;8.344;2022-11-25T14:00:07;4.07;;;2.10;;
37971;SDS011;23794;48.234;8.344;2022-11-25T14:02:54;6.32;;;1.60;;
37971;SDS011;23794;48.234;8.344;2022-11-25T14:11:31;5.68;;;1.90;;
37971;SDS011;23794;48.234;8.344;2022-11-25T14:20:02;5.43;;;1.70;;
37971;SDS011;23794;48.234;8.344;2022-11-25T14:22:32;9.73;;;2.10;;
37971;SDS011;23794;48.234;8.344;2022-11-25T14:28:29;4.53;;;1.83;;
37971;SDS011;23794;48.234;8.344;2022-11-25T14:31:08;5.43;;;2.20;;
37971;SDS011;23794;48.234;8.344;2022-11-25T14:33:44;4.88;;;1.77;;
37971;SDS011;23794;48.234;8.344;2022-11-25T14:36:21;8.25;;;2.30;;
37971;SDS011;23794;48.234;8.344;2022-11-25T14:39:43;9.60;;;1.90;;
37971;SDS011;23794;48.234;8.344;2022-11-25T14:44:33;8.20;;;2.85;;
37971;SDS011;23794;48.234;8.344;2022-11-25T14:47:04;5.57;;;2.10;;
37971;SDS011;23794;48.234;8.344;2022-11-25T14:49:41;6.70;;;2.15;;
37971;SDS011;23794;48.234;8.344;2022-11-25T14:52:33;6.13;;;2.65;;
37971;SDS011;23794;48.234;8.344;2022-11-25T14:55:02;6.93;;;2.80;;
37971;SDS011;23794;48.234;8.344;2022-11-25T14:57:33;8.65;;;3.25;;
37971;SDS011;23794;48.234;8.344;2022-11-25T15:00:05;8.95;;;4.25;;
37971;SDS011;23794;48.234;8.344;2022-11-25T15:02:41;12.15;;;4.55;;
37971;SDS011;23794;48.234;8.344;2022-11-25T15:05:20;9.07;;;3.03;;
37971;SDS011;23794;48.234;8.344;2022-11-25T15:07:58;13.60;;;3.38;;
37971;SDS011;23794;48.234;8.344;2022-11-25T15:10:40;15.45;;;3.42;;
37971;SDS011;23794;48.234;8.344;2022-11-25T15:13:23;4.85;;;1.88;;
37971;SDS011;23794;48.234;8.344;2022-11-25T15:16:11;7.30;;;2.35;;
37971;SDS011;23794;48.234;8.344;2022-11-25T15:18:50;6.75;;;3.10;;
37971;SDS011;23794;48.234;8.344;2022-11-25T15:23:54;9.68;;;2.83;;
37971;SDS011;23794;48.234;8.344;2022-11-25T15:26:23;12.55;;;3.20;;
37971;SDS011;23794;48.234;8.344;2022-11-25T15:29:09;7.45;;;2.60;;
37971;SDS011;23794;48.234;8.344;2022-11-25T15:31:37;13.38;;;4.32;;
37971;SDS011;23794;48.234;8.344;2022-11-25T15:34:09;8.82;;;2.58;;
37971;SDS011;23794;48.234;8.344;2022-11-25T15:36:38;7.65;;;3.15;;
37971;SDS011;23794;48.234;8.344;2022-11-25T15:39:15;7.55;;;2.47;;
37971;SDS011;23794;48.234;8.344;2022-11-25T15:44:32;9.45;;;3.13;;
37971;SDS011;23794;48.234;8.344;2022-11-25T15:47:02;7.28;;;3.15;;
37971;SDS011;23794;48.234;8.344;2022-11-25T15:49:32;11.18;;;3.90;;
37971;SDS011;23794;48.234;8.344;2022-11-25T15:52:05;10.48;;;3.38;;
37971;SDS011;23794;48.234;8.344;2022-11-25T15:54:40;8.35;;;3.10;;
37971;SDS011;23794;48.234;8.344;2022-11-25T15:57:20;9.48;;;2.97;;
37971;SDS011;23794;48.234;8.344;2022-11-25T16:02:35;6.97;;;2.47;;
37971;SDS011;23794;48.234;8.344;2022-11-25T16:07:39;4.60;;;2.60;;
37971;SDS011;23794;48.234;8.344;2022-11-25T16:10:30;7.00;;;1.80;;
37971;SDS011;23794;48.234;8.344;2022-11-25T16:15:58;9.85;;;3.10;;
37971;SDS011;23794;48.234;8.344;2022-11-25T16:18:50;7.03;;;2.45;;
37971;SDS011;23794;48.234;8.344;2022-11-25T16:21:22;4.80;;;2.10;;
37971;SDS011;23794;48.234;8.344;2022-11-25T16:23:52;7.90;;;2.63;;
37971;SDS011;23794;48.234;8.344;2022-11-25T16:28:55;10.40;;;5.47;;
37971;SDS011;23794;48.234;8.344;2022-11-25T16:31:26;10.95;;;5.13;;
37971;SDS011;23794;48.234;8.344;2022-11-25T16:33:55;9.57;;;4.88;;
37971;SDS011;23794;48.234;8.344;2022-11-25T16:38:52;15.10;;;6.80;;
37971;SDS011;23794;48.234;8.344;2022-11-25T16:41:21;15.40;;;5.63;;
37971;SDS011;23794;48.234;8.344;2022-11-25T16:43:50;15.65;;;7.30;;
37971;SDS011;23794;48.234;8.344;2022-11-25T16:46:17;11.82;;;5.20;;
37971;SDS011;23794;48.234;8.344;2022-11-25T16:48:45;9.13;;;4.90;;
37971;SDS011;23794;48.234;8.344;2022-11-25T16:51:16;8.30;;;4.00;;
37971;SDS011;23794;48.234;8.344;2022-11-25T16:53:45;11.93;;;3.95;;
37971;SDS011;23794;48.234;8.344;2022-11-25T16:56:13;6.93;;;2.85;;
37971;SDS011;23794;48.234;8.344;2022-11-25T16:58:43;9.38;;;2.90;;
37971;SDS011;23794;48.234;8.344;2022-11-25T17:01:12;6.82;;;2.88;;
37971;SDS011;23794;48.234;8.344;2022-11-25T17:03:41;7.47;;;3.55;;
37971;SDS011;23794;48.234;8.344;2022-11-25T17:06:12;5.05;;;2.67;;
37971;SDS011;23794;48.234;8.344;2022-11-25T17:08:47;7.97;;;4.20;;
37971;SDS011;23794;48.234;8.344;2022-11-25T17:11:19;7.22;;;3.35;;
37971;SDS011;23794;48.234;8.344;2022-11-25T17:16:16;8.40;;;2.03;;
37971;SDS011;23794;48.234;8.344;2022-11-25T17:18:45;5.35;;;2.05;;
37971;SDS011;23794;48.234;8.344;2022-11-25T17:21:15;6.22;;;2.47;;
37971;SDS011;23794;48.234;8.344;2022-11-25T17:23:42;8.75;;;2.00;;
37971;SDS011;23794;48.234;8.344;2022-11-25T17:26:17;5.30;;;2.75;;
37971;SDS011;23794;48.234;8.344;2022-11-25T17:28:51;7.25;;;2.15;;
37971;SDS011;23794;48.234;8.344;2022-11-25T17:31:25;6.20;;;1.98;;
37971;SDS011;23794;48.234;8.344;2022-11-25T17:33:54;5.88;;;2.22;;